createdAt,value
2023-02-18T00:01:30.474Z,31.90
2023-02-18T00:03:32.101Z,37.58
2023-02-18T00:05:33.784Z,33.40
2023-02-18T00:07:36.779Z,32.72
2023-02-18T00:09:39.169Z,34.57
2023-02-18T00:11:40.853Z,34.40
2023-02-18T00:13:42.506Z,32.95
2023-02-18T00:15:44.125Z,33.90
2023-02-18T00:17:45.746Z,28.20
2023-02-18T00:19:47.396Z,31.95
2023-02-18T00:21:49.100Z,25.88
2023-02-18T00:23:51.339Z,27.20
2023-02-18T00:26:01.077Z,25.48
2023-02-18T00:28:02.652Z,34.78
2023-02-18T00:30:05.924Z,30.20
2023-02-18T00:32:07.957Z,28.75
2023-02-18T00:34:11.545Z,33.10
2023-02-18T00:36:17.239Z,28.98
2023-02-18T00:38:18.818Z,31.20
2023-02-18T00:40:21.064Z,24.50
2023-02-18T00:42:22.675Z,27.70
2023-02-18T00:44:24.317Z,27.13
2023-02-18T00:46:26.621Z,27.10
2023-02-18T00:48:28.378Z,27.33
2023-02-18T00:50:29.936Z,27.10
2023-02-18T00:52:31.539Z,31.95
2023-02-18T00:54:33.110Z,30.70
2023-02-18T00:56:35.131Z,31.42
2023-02-18T00:58:37.263Z,31.83
2023-02-18T01:00:38.877Z,34.50
2023-02-18T01:02:40.490Z,28.00
2023-02-18T01:04:42.093Z,29.30
2023-02-18T01:06:47.872Z,26.85
2023-02-18T01:08:49.977Z,30.20
2023-02-18T01:10:54.879Z,26.10
2023-02-18T01:12:56.482Z,27.83
2023-02-18T01:14:58.101Z,30.38
2023-02-18T01:16:59.690Z,25.27
2023-02-18T01:19:01.381Z,27.58
2023-02-18T01:21:03.200Z,33.50
2023-02-18T01:23:05.019Z,25.80
2023-02-18T01:25:07.205Z,23.58
2023-02-18T01:27:08.766Z,26.83
2023-02-18T01:29:10.343Z,26.20
2023-02-18T01:31:13.401Z,23.77
2023-02-18T01:33:15.082Z,23.98
2023-02-18T01:35:18.730Z,25.98
2023-02-18T01:37:20.314Z,27.92
2023-02-18T01:39:21.940Z,28.67
2023-02-18T01:41:23.921Z,24.10
2023-02-18T01:43:25.609Z,23.42
2023-02-18T01:45:38.968Z,25.40
2023-02-18T01:47:40.667Z,27.33
2023-02-18T01:49:44.877Z,26.17
2023-02-18T01:52:14.777Z,22.60
2023-02-18T01:54:22.002Z,23.23
2023-02-18T01:56:31.231Z,26.17
2023-02-18T01:58:33.193Z,27.92
2023-02-18T02:00:37.073Z,25.95
2023-02-18T02:04:41.841Z,21.80
2023-02-18T02:06:43.455Z,22.63
2023-02-18T02:08:46.012Z,23.17
2023-02-18T02:11:03.299Z,22.35
2023-02-18T02:13:55.724Z,22.10
2023-02-18T02:16:11.353Z,23.75
2023-02-18T02:18:25.280Z,21.08
2023-02-18T02:20:51.272Z,23.00
2023-02-18T02:23:08.248Z,19.83
2023-02-18T02:25:15.594Z,22.02
2023-02-18T02:27:22.895Z,25.85
2023-02-18T02:29:33.344Z,20.42
2023-02-18T02:31:53.634Z,21.73
2023-02-18T02:34:02.759Z,25.00
2023-02-18T02:36:39.030Z,23.05
2023-02-18T02:38:56.883Z,20.83
2023-02-18T02:41:17.528Z,27.80
2023-02-18T02:43:24.536Z,23.40
2023-02-18T02:45:47.162Z,22.45
2023-02-18T02:47:57.079Z,26.35
2023-02-18T02:50:16.903Z,26.10
2023-02-18T02:52:18.474Z,27.25
2023-02-18T02:54:24.411Z,22.17
2023-02-18T02:56:26.117Z,22.98
2023-02-18T02:58:27.764Z,24.85
2023-02-18T03:00:44.374Z,19.60
2023-02-18T03:02:55.308Z,25.92
2023-02-18T03:05:12.167Z,23.40
2023-02-18T03:07:19.927Z,19.40
2023-02-18T03:09:48.982Z,21.48
2023-02-18T03:12:17.582Z,22.63
2023-02-18T03:14:33.612Z,19.58
2023-02-18T03:16:48.726Z,24.85
2023-02-18T03:19:01.392Z,24.02
2023-02-18T03:21:07.487Z,23.35
2023-02-18T03:23:12.529Z,21.83
2023-02-18T03:25:15.097Z,22.33
2023-02-18T03:27:21.887Z,23.70
2023-02-18T03:29:23.637Z,23.58
2023-02-18T03:31:27.816Z,25.98
2023-02-18T03:33:35.048Z,21.00
2023-02-18T03:35:37.626Z,32.90
2023-02-18T03:37:43.245Z,32.03
2023-02-18T03:39:48.584Z,35.25
2023-02-18T03:41:50.277Z,32.15
2023-02-18T03:44:00.594Z,24.17
2023-02-18T03:46:03.578Z,23.23
2023-02-18T03:48:05.612Z,23.40
2023-02-18T03:50:08.082Z,23.15
2023-02-18T03:52:09.821Z,26.38
2023-02-18T03:54:11.654Z,22.17
2023-02-18T03:56:13.431Z,24.80
2023-02-18T03:58:15.217Z,22.80
2023-02-18T04:00:17.163Z,23.20
2023-02-18T04:02:19.004Z,26.45
2023-02-18T04:04:20.698Z,28.35
2023-02-18T04:06:23.487Z,48.80
2023-02-18T04:08:25.466Z,42.50
2023-02-18T04:10:27.109Z,27.25
2023-02-18T04:12:28.820Z,26.10
2023-02-18T04:14:30.431Z,23.33
2023-02-18T04:16:32.238Z,21.00
2023-02-18T04:18:33.913Z,23.25
2023-02-18T04:20:35.587Z,21.75
2023-02-18T04:22:37.226Z,29.13
2023-02-18T04:24:38.912Z,23.40
2023-02-18T04:26:40.540Z,24.08
2023-02-18T04:28:42.167Z,24.80
2023-02-18T04:30:44.621Z,25.13
2023-02-18T04:32:46.418Z,24.95
2023-02-18T04:34:48.027Z,23.95
2023-02-18T04:36:49.650Z,25.15
2023-02-18T04:38:51.298Z,29.92
2023-02-18T04:40:53.043Z,22.20
2023-02-18T04:42:54.670Z,25.10
2023-02-18T04:45:04.203Z,23.88
2023-02-18T04:47:06.804Z,23.95
2023-02-18T04:49:08.504Z,24.25
2023-02-18T04:51:10.316Z,26.20
2023-02-18T04:53:11.909Z,30.45
2023-02-18T04:55:13.672Z,25.15
2023-02-18T04:57:15.318Z,24.40
2023-02-18T04:59:17.073Z,25.08
2023-02-18T05:01:18.688Z,24.70
2023-02-18T05:03:20.432Z,27.70
2023-02-18T05:05:22.318Z,25.73
2023-02-18T05:07:23.920Z,25.08
2023-02-18T05:09:25.691Z,23.45
2023-02-18T05:11:27.320Z,24.33
2023-02-18T05:13:28.925Z,23.27
2023-02-18T05:15:30.714Z,35.75
2023-02-18T05:17:32.543Z,24.10
2023-02-18T05:19:34.160Z,20.00
2023-02-18T05:21:35.757Z,22.73
2023-02-18T05:23:37.308Z,24.52
2023-02-18T05:25:38.895Z,22.63
2023-02-18T05:27:40.537Z,27.85
2023-02-18T05:29:42.167Z,23.55
2023-02-18T05:31:43.885Z,25.48
2023-02-18T05:33:45.532Z,26.13
2023-02-18T05:35:47.172Z,21.48
2023-02-18T05:37:48.785Z,23.80
2023-02-18T05:39:50.394Z,21.10
2023-02-18T05:41:52.191Z,26.67
2023-02-18T05:44:12.030Z,23.83
2023-02-18T05:46:13.634Z,28.90
2023-02-18T05:48:15.289Z,28.20
2023-02-18T05:50:17.232Z,28.23
2023-02-18T05:52:18.894Z,27.75
2023-02-18T05:54:20.612Z,31.75
2023-02-18T05:56:22.286Z,24.52
2023-02-18T05:58:23.897Z,29.77
2023-02-18T06:00:25.646Z,28.42
2023-02-18T06:02:27.188Z,23.60
2023-02-18T06:04:28.789Z,22.05
2023-02-18T06:06:30.445Z,28.85
2023-02-18T06:08:31.996Z,29.45
2023-02-18T06:10:33.566Z,23.90
2023-02-18T06:12:35.180Z,30.50
2023-02-18T06:14:36.809Z,22.75
2023-02-18T06:16:38.516Z,19.88
2023-02-18T06:18:40.198Z,22.70
2023-02-18T06:20:41.839Z,22.63
2023-02-18T06:22:43.472Z,26.20
2023-02-18T06:24:45.064Z,26.35
2023-02-18T06:26:46.670Z,29.95
2023-02-18T06:28:48.271Z,26.73
2023-02-18T06:30:50.417Z,30.20
2023-02-18T06:32:51.998Z,23.13
2023-02-18T06:34:53.686Z,23.52
2023-02-18T06:36:55.273Z,23.90
2023-02-18T06:38:57.633Z,22.08
2023-02-18T06:40:59.274Z,21.77
2023-02-18T06:43:00.836Z,25.23
2023-02-18T06:45:06.802Z,21.58
2023-02-18T06:47:08.417Z,30.73
2023-02-18T06:49:13.145Z,27.55
2023-02-18T06:51:16.247Z,23.60
2023-02-18T06:53:18.155Z,22.08
2023-02-18T06:55:19.822Z,25.08
2023-02-18T06:57:21.413Z,30.52
2023-02-18T06:59:23.202Z,23.58
2023-02-18T07:01:24.807Z,37.00
2023-02-18T07:03:26.524Z,29.30
2023-02-18T07:05:28.503Z,23.20
2023-02-18T07:07:30.182Z,21.60
2023-02-18T07:09:31.892Z,37.08
2023-02-18T07:11:33.675Z,25.85
2023-02-18T07:13:35.361Z,40.20
2023-02-18T07:15:37.008Z,25.85
2023-02-18T07:17:39.208Z,22.02
2023-02-18T07:19:40.925Z,26.23
2023-02-18T07:21:43.088Z,30.13
2023-02-18T07:23:44.662Z,29.88
2023-02-18T07:25:46.206Z,27.48
2023-02-18T07:27:47.806Z,25.98
2023-02-18T07:29:49.640Z,30.88
2023-02-18T07:31:51.546Z,22.33
2023-02-18T07:33:53.235Z,27.50
2023-02-18T07:35:57.008Z,27.30
2023-02-18T07:37:58.682Z,27.20
2023-02-18T07:40:00.330Z,32.78
2023-02-18T07:42:05.031Z,20.70
2023-02-18T07:44:06.628Z,26.33
2023-02-18T07:46:08.694Z,26.95
2023-02-18T07:48:10.680Z,27.30
2023-02-18T07:50:12.331Z,26.00
2023-02-18T07:52:15.060Z,22.83
2023-02-18T07:54:18.326Z,26.35
2023-02-18T07:56:19.987Z,25.23
2023-02-18T07:58:27.800Z,31.27
2023-02-18T08:00:29.424Z,23.35
2023-02-18T08:02:31.070Z,26.45
2023-02-18T08:04:32.878Z,24.58
2023-02-18T08:06:54.125Z,29.42
2023-02-18T08:08:55.719Z,25.92
2023-02-18T08:11:02.727Z,23.20
2023-02-18T08:13:08.935Z,26.55
2023-02-18T08:15:10.476Z,27.98
2023-02-18T08:17:12.091Z,22.10
2023-02-18T08:19:14.045Z,26.02
2023-02-18T08:21:16.926Z,23.00
2023-02-18T08:23:22.779Z,33.15
2023-02-18T08:25:29.759Z,29.40
2023-02-18T08:27:31.835Z,21.45
2023-02-18T08:29:33.418Z,25.00
2023-02-18T08:31:35.153Z,26.73
2023-02-18T08:33:36.844Z,26.75
2023-02-18T08:35:38.509Z,26.75
2023-02-18T08:37:53.021Z,31.42
2023-02-18T08:39:55.954Z,28.23
2023-02-18T08:41:57.549Z,29.17
2023-02-18T08:43:59.188Z,29.00
2023-02-18T08:46:00.969Z,33.97
2023-02-18T08:48:18.286Z,33.22
2023-02-18T08:50:26.121Z,36.88
2023-02-18T08:52:28.044Z,27.38
2023-02-18T08:54:29.734Z,28.77
2023-02-18T08:56:32.616Z,30.48
2023-02-18T08:58:37.271Z,38.57
2023-02-18T09:00:40.163Z,31.75
2023-02-18T09:02:41.803Z,29.98
2023-02-18T09:04:43.769Z,34.65
2023-02-18T09:06:46.863Z,33.45
2023-02-18T09:08:48.539Z,34.10
2023-02-18T09:10:50.144Z,38.92
2023-02-18T09:12:51.856Z,31.70
2023-02-18T09:14:53.491Z,27.95
2023-02-18T09:16:57.771Z,28.92
2023-02-18T09:18:59.525Z,30.77
2023-02-18T09:21:01.159Z,27.08
2023-02-18T09:23:03.774Z,26.83
2023-02-18T09:25:05.655Z,27.63
2023-02-18T09:27:08.764Z,24.27
2023-02-18T09:29:12.145Z,20.58
2023-02-18T09:31:16.458Z,27.92
2023-02-18T09:33:18.692Z,26.23
2023-02-18T09:35:20.568Z,23.13
2023-02-18T09:37:22.246Z,30.30
2023-02-18T09:39:23.942Z,32.70
2023-02-18T09:41:41.792Z,25.25
2023-02-18T09:43:46.525Z,38.17
2023-02-18T09:45:48.412Z,30.30
2023-02-18T09:47:50.946Z,25.77
2023-02-18T09:49:55.344Z,29.83
2023-02-18T09:51:58.070Z,33.85
2023-02-18T09:53:59.872Z,26.98
2023-02-18T09:56:01.902Z,27.02
2023-02-18T09:58:11.422Z,28.65
2023-02-18T10:00:17.237Z,29.27
2023-02-18T10:02:20.588Z,28.50
2023-02-18T10:04:32.187Z,23.50
2023-02-18T10:06:34.944Z,32.28
2023-02-18T10:08:51.120Z,30.35
2023-02-18T10:10:52.804Z,28.00
2023-02-18T10:12:55.800Z,30.55
2023-02-18T10:15:00.109Z,22.65
2023-02-18T10:17:02.152Z,35.95
2023-02-18T10:19:19.188Z,21.90
2023-02-18T10:21:30.597Z,30.85
2023-02-18T10:23:35.279Z,28.25
2023-02-18T10:25:39.669Z,21.25
2023-02-18T10:27:41.293Z,25.48
2023-02-18T10:29:42.908Z,27.55
2023-02-18T10:31:50.363Z,28.27
2023-02-18T10:34:15.389Z,23.60
2023-02-18T10:36:23.006Z,28.13
2023-02-18T10:39:02.229Z,21.40
2023-02-18T10:41:07.257Z,29.65
2023-02-18T10:43:52.856Z,29.92
2023-02-18T10:46:06.441Z,29.27
2023-02-18T10:48:33.648Z,26.58
2023-02-18T10:50:45.530Z,21.92
2023-02-18T10:52:49.604Z,24.25
2023-02-18T10:55:26.784Z,23.10
2023-02-18T10:57:28.506Z,28.52
2023-02-18T10:59:33.578Z,27.00
2023-02-18T11:01:35.382Z,23.15
2023-02-18T11:03:46.406Z,20.27
2023-02-18T11:05:51.095Z,24.77
2023-02-18T11:07:56.861Z,28.60
2023-02-18T11:10:19.962Z,23.70
2023-02-18T11:12:43.488Z,21.25
2023-02-18T11:14:51.481Z,17.27
2023-02-18T11:16:56.501Z,21.70
2023-02-18T11:19:00.316Z,18.88
2023-02-18T11:23:08.450Z,16.98
2023-02-18T11:25:24.321Z,9.05
2023-02-18T11:27:36.244Z,11.43
2023-02-18T11:29:38.864Z,6.65
2023-02-18T11:31:43.632Z,10.20
2023-02-18T11:33:52.176Z,7.00
2023-02-18T11:35:58.297Z,6.47
2023-02-18T11:38:03.329Z,6.10
2023-02-18T11:40:05.671Z,5.28
2023-02-18T11:42:07.478Z,6.43
2023-02-18T11:44:23.580Z,6.47
2023-02-18T11:46:27.720Z,8.40
2023-02-18T11:48:29.508Z,6.60
2023-02-18T11:50:33.404Z,8.15
2023-02-18T11:52:47.015Z,4.82
2023-02-18T11:55:01.143Z,10.50
2023-02-18T11:59:10.583Z,18.70
2023-02-18T12:01:24.924Z,12.20
2023-02-18T12:03:42.544Z,10.45
2023-02-18T12:05:45.699Z,6.50
2023-02-18T12:08:09.836Z,10.30
2023-02-18T12:10:31.154Z,9.45
2023-02-18T12:12:41.098Z,7.70
2023-02-18T12:14:43.928Z,7.45
2023-02-18T12:16:51.439Z,9.73
2023-02-18T12:19:11.081Z,11.10
2023-02-18T12:21:42.245Z,5.78
2023-02-18T12:23:53.078Z,5.20
2023-02-18T12:25:57.046Z,8.02
2023-02-18T12:28:13.879Z,5.95
2023-02-18T12:30:39.931Z,7.53
2023-02-18T12:32:55.620Z,10.32
2023-02-18T12:35:28.101Z,7.72
2023-02-18T12:37:54.202Z,6.22
2023-02-18T12:40:01.494Z,5.72
2023-02-18T12:42:18.203Z,8.20
2023-02-18T12:44:28.502Z,5.97
2023-02-18T12:46:40.031Z,6.22
2023-02-18T12:49:07.949Z,6.82
2023-02-18T12:51:30.457Z,8.20
2023-02-18T12:53:38.333Z,5.20
2023-02-18T12:55:49.048Z,4.45
2023-02-18T12:57:56.537Z,7.82
2023-02-18T13:00:19.627Z,5.50
2023-02-18T13:02:54.714Z,6.65
2023-02-18T13:05:32.417Z,7.10
2023-02-18T13:07:44.260Z,5.80
2023-02-18T13:09:45.830Z,6.88
2023-02-18T13:12:41.508Z,5.80
2023-02-18T13:16:52.207Z,5.43
2023-02-18T13:18:53.838Z,7.00
2023-02-18T13:21:01.737Z,8.38
2023-02-18T13:23:04.331Z,6.32
2023-02-18T13:25:07.183Z,5.70
2023-02-18T13:27:33.800Z,8.63
2023-02-18T13:29:46.829Z,10.55
2023-02-18T13:32:16.953Z,10.57
2023-02-18T13:34:29.877Z,6.80
2023-02-18T13:36:37.274Z,14.00
2023-02-18T13:38:58.445Z,8.30
2023-02-18T13:41:00.417Z,12.13
2023-02-18T13:43:32.285Z,11.45
2023-02-18T13:45:34.331Z,10.60
2023-02-18T13:47:42.672Z,9.68
2023-02-18T13:49:44.292Z,10.48
2023-02-18T13:51:48.780Z,12.10
2023-02-18T13:53:52.753Z,11.90
2023-02-18T13:56:28.414Z,12.25
2023-02-18T13:58:43.433Z,16.33
2023-02-18T14:01:05.570Z,15.00
2023-02-18T14:03:45.073Z,14.82
2023-02-18T14:05:46.753Z,13.07
2023-02-18T14:08:17.726Z,14.35
2023-02-18T14:10:19.356Z,9.07
2023-02-18T14:12:42.252Z,9.75
2023-02-18T14:14:44.104Z,8.60
2023-02-18T14:17:19.859Z,12.98
2023-02-18T14:19:29.007Z,12.75
2023-02-18T14:21:41.191Z,15.98
2023-02-18T14:23:51.790Z,12.38
2023-02-18T14:26:14.957Z,11.65
2023-02-18T14:28:38.010Z,14.55
2023-02-18T14:30:42.348Z,10.00
2023-02-18T14:32:45.455Z,11.77
2023-02-18T14:35:03.519Z,10.70
2023-02-18T14:37:30.517Z,9.35
2023-02-18T14:39:54.081Z,12.93
2023-02-18T14:42:04.769Z,14.45
2023-02-18T14:44:09.477Z,10.55
2023-02-18T14:46:24.660Z,11.82
2023-02-18T14:48:37.962Z,13.30
2023-02-18T14:50:43.054Z,13.83
2023-02-18T14:52:48.854Z,14.90
2023-02-18T14:54:50.879Z,11.32
2023-02-18T14:57:04.416Z,8.90
2023-02-18T14:59:06.657Z,8.90
2023-02-18T15:01:19.664Z,9.60
2023-02-18T15:03:22.486Z,11.35
2023-02-18T15:05:26.694Z,12.93
2023-02-18T15:07:28.362Z,16.30
2023-02-18T15:09:30.417Z,13.38
2023-02-18T15:11:39.193Z,19.65
2023-02-18T15:13:45.769Z,11.82
2023-02-18T15:15:51.365Z,12.45
2023-02-18T15:17:53.034Z,13.65
2023-02-18T15:20:00.070Z,15.10
2023-02-18T15:22:01.787Z,15.23
2023-02-18T15:24:19.002Z,19.88
2023-02-18T15:26:21.308Z,16.15
2023-02-18T15:28:26.889Z,13.57
2023-02-18T15:30:31.229Z,12.85
2023-02-18T15:32:33.191Z,17.30
2023-02-18T15:34:37.852Z,15.48
2023-02-18T15:36:39.468Z,15.40
2023-02-18T15:38:44.573Z,12.15
2023-02-18T15:40:53.090Z,17.27
2023-02-18T15:42:58.125Z,12.98
2023-02-18T15:45:20.641Z,17.20
2023-02-18T15:47:22.832Z,21.00
2023-02-18T15:49:24.790Z,18.65
2023-02-18T15:51:30.280Z,11.65
2023-02-18T15:53:37.114Z,15.60
2023-02-18T15:55:40.414Z,12.23
2023-02-18T15:57:42.270Z,15.90
2023-02-18T15:59:47.466Z,18.63
2023-02-18T16:01:51.378Z,20.10
2023-02-18T16:03:54.559Z,22.00
2023-02-18T16:06:19.179Z,19.33
2023-02-18T16:10:33.244Z,18.17
2023-02-18T16:12:37.410Z,14.85
2023-02-18T16:14:49.535Z,16.27
2023-02-18T16:17:29.344Z,18.00
2023-02-18T16:19:32.266Z,19.30
2023-02-18T16:21:39.915Z,20.83
2023-02-18T16:23:44.066Z,18.20
2023-02-18T16:25:48.760Z,20.95
2023-02-18T16:28:03.163Z,18.05
2023-02-18T16:30:28.151Z,19.92
2023-02-18T16:32:30.046Z,26.95
2023-02-18T16:34:31.937Z,32.45
2023-02-18T16:36:33.865Z,27.05
2023-02-18T16:38:36.058Z,28.33
2023-02-18T16:40:43.078Z,27.40
2023-02-18T16:42:44.671Z,26.80
2023-02-18T16:44:48.158Z,13.18
2023-02-18T16:46:49.826Z,18.48
2023-02-18T16:48:55.043Z,19.63
2023-02-18T16:50:57.087Z,15.85
2023-02-18T16:52:59.288Z,23.75
2023-02-18T16:55:00.914Z,24.77
2023-02-18T16:57:02.555Z,35.78
2023-02-18T16:59:04.746Z,19.25
2023-02-18T17:01:06.560Z,19.42
2023-02-18T17:03:08.419Z,22.23
2023-02-18T17:05:26.061Z,17.45
2023-02-18T17:07:29.892Z,24.55
2023-02-18T17:09:31.467Z,13.90
2023-02-18T17:11:34.430Z,15.35
2023-02-18T17:13:36.078Z,17.07
2023-02-18T17:15:38.099Z,18.17
2023-02-18T17:17:39.791Z,20.98
2023-02-18T17:19:41.410Z,23.17
2023-02-18T17:21:43.544Z,16.88
2023-02-18T17:23:45.647Z,22.73
2023-02-18T17:25:49.057Z,16.17
2023-02-18T17:27:50.791Z,14.35
2023-02-18T17:29:52.406Z,19.52
2023-02-18T17:31:56.931Z,17.38
2023-02-18T17:34:01.276Z,16.70
2023-02-18T17:36:02.961Z,18.17
2023-02-18T17:38:16.041Z,16.77
2023-02-18T17:40:20.130Z,14.68
2023-02-18T17:42:21.735Z,15.57
2023-02-18T17:44:24.717Z,17.33
2023-02-18T17:46:26.336Z,15.27
2023-02-18T17:48:28.484Z,18.00
2023-02-18T17:50:31.686Z,14.05
2023-02-18T17:52:33.334Z,15.15
2023-02-18T17:54:34.931Z,13.07
2023-02-18T17:56:36.776Z,13.63
2023-02-18T17:58:38.334Z,20.00
2023-02-18T18:00:42.463Z,15.27
2023-02-18T18:02:44.316Z,12.35
2023-02-18T18:04:45.909Z,11.95
2023-02-18T18:06:47.661Z,16.70
2023-02-18T18:08:49.260Z,11.57
2023-02-18T18:10:55.732Z,16.88
2023-02-18T18:12:58.455Z,17.90
2023-02-18T18:15:01.805Z,19.20
2023-02-18T18:17:03.394Z,18.83
2023-02-18T18:19:05.059Z,20.73
2023-02-18T18:21:07.295Z,22.10
2023-02-18T18:23:11.390Z,25.48
2023-02-18T18:25:19.461Z,22.42
2023-02-18T18:27:21.027Z,17.25
2023-02-18T18:29:22.599Z,14.85
2023-02-18T18:31:24.448Z,14.55
2023-02-18T18:33:36.545Z,15.52
2023-02-18T18:35:38.778Z,14.30
2023-02-18T18:37:40.350Z,21.77
2023-02-18T18:39:41.936Z,16.08
2023-02-18T18:41:43.578Z,19.00
2023-02-18T18:43:45.503Z,14.32
2023-02-18T18:45:47.747Z,19.23
2023-02-18T18:47:50.281Z,17.23
2023-02-18T18:49:51.951Z,18.10
2023-02-18T18:51:55.313Z,15.18
2023-02-18T18:53:58.486Z,17.40
2023-02-18T18:56:05.889Z,15.65
2023-02-18T18:58:07.504Z,15.25
2023-02-18T19:00:10.048Z,16.48
2023-02-18T19:02:16.107Z,17.70
2023-02-18T19:04:18.852Z,16.80
2023-02-18T19:06:21.219Z,22.77
2023-02-18T19:08:23.221Z,16.77
2023-02-18T19:10:39.486Z,22.10
2023-02-18T19:12:41.088Z,18.63
2023-02-18T19:14:42.662Z,21.10
2023-02-18T19:16:44.307Z,20.13
2023-02-18T19:18:46.403Z,20.23
2023-02-18T19:20:48.657Z,23.35
2023-02-18T19:22:50.804Z,17.40
2023-02-18T19:24:52.440Z,22.45
2023-02-18T19:26:54.042Z,22.83
2023-02-18T19:28:55.684Z,27.35
2023-02-18T19:30:57.442Z,19.05
2023-02-18T19:33:00.554Z,17.58
2023-02-18T19:35:02.112Z,20.58
2023-02-18T19:37:03.716Z,26.88
2023-02-18T19:39:05.308Z,18.77
2023-02-18T19:41:12.508Z,20.20
2023-02-18T19:43:14.591Z,21.08
2023-02-18T19:45:17.208Z,21.70
2023-02-18T19:47:18.779Z,22.38
2023-02-18T19:49:20.344Z,24.38
2023-02-18T19:51:21.996Z,25.17
2023-02-18T19:53:23.574Z,21.58
2023-02-18T19:55:25.510Z,20.98
2023-02-18T19:57:27.308Z,25.10
2023-02-18T19:59:29.844Z,32.08
2023-02-18T20:01:31.638Z,23.02
2023-02-18T20:03:33.495Z,24.77
2023-02-18T20:05:38.233Z,23.67
2023-02-18T20:07:41.688Z,27.35
2023-02-18T20:09:43.653Z,16.98
2023-02-18T20:11:45.351Z,25.40
2023-02-18T20:13:48.374Z,19.63
2023-02-18T20:15:49.979Z,24.50
2023-02-18T20:17:51.595Z,24.45
2023-02-18T20:19:53.292Z,23.42
2023-02-18T20:21:56.124Z,24.25
2023-02-18T20:23:58.327Z,28.95
2023-02-18T20:26:04.110Z,26.08
2023-02-18T20:28:06.029Z,24.25
2023-02-18T20:30:08.871Z,30.17
2023-02-18T20:32:10.557Z,31.42
2023-02-18T20:34:12.570Z,21.95
2023-02-18T20:36:14.468Z,26.05
2023-02-18T20:38:18.009Z,21.98
2023-02-18T20:40:20.384Z,23.90
2023-02-18T20:42:22.315Z,28.73
2023-02-18T20:44:25.816Z,29.80
2023-02-18T20:46:27.518Z,22.60
2023-02-18T20:48:30.166Z,22.10
2023-02-18T20:50:31.786Z,20.35
2023-02-18T20:52:34.741Z,19.48
2023-02-18T20:54:36.888Z,20.73
2023-02-18T20:56:39.241Z,17.92
2023-02-18T20:58:41.532Z,26.30
2023-02-18T21:00:43.230Z,19.58
2023-02-18T21:02:44.889Z,25.75
2023-02-18T21:04:46.601Z,20.10
2023-02-18T21:06:50.573Z,21.65
2023-02-18T21:08:53.634Z,24.67
2023-02-18T21:10:56.844Z,23.52
2023-02-18T21:12:58.562Z,20.73
2023-02-18T21:15:00.252Z,18.55
2023-02-18T21:17:03.671Z,21.50
2023-02-18T21:19:07.367Z,18.52
2023-02-18T21:21:10.289Z,25.30
2023-02-18T21:23:12.324Z,19.52
2023-02-18T21:25:14.039Z,22.00
2023-02-18T21:27:15.562Z,29.20
2023-02-18T21:29:17.433Z,21.98
2023-02-18T21:31:43.497Z,16.75
2023-02-18T21:33:45.254Z,18.00
2023-02-18T21:35:49.024Z,17.70
2023-02-18T21:37:52.162Z,20.08
2023-02-18T21:39:53.813Z,20.00
2023-02-18T21:41:57.177Z,18.65
2023-02-18T21:43:58.907Z,23.33
2023-02-18T21:46:19.644Z,18.15
2023-02-18T21:48:39.702Z,15.82
2023-02-18T21:50:41.247Z,17.15
2023-02-18T21:52:43.293Z,19.90
2023-02-18T21:54:45.050Z,22.35
2023-02-18T21:56:46.718Z,26.45
2023-02-18T21:58:48.346Z,23.83
2023-02-18T22:00:57.121Z,18.35
2023-02-18T22:02:58.734Z,17.73
2023-02-18T22:05:02.380Z,21.35
2023-02-18T22:07:04.244Z,19.92
2023-02-18T22:09:06.436Z,19.55
2023-02-18T22:11:08.314Z,16.55
2023-02-18T22:13:10.158Z,14.57
2023-02-18T22:15:11.872Z,18.70
2023-02-18T22:17:14.404Z,18.67
2023-02-18T22:19:16.035Z,19.73
2023-02-18T22:21:19.194Z,18.88
2023-02-18T22:23:21.813Z,20.38
2023-02-18T22:25:23.393Z,19.95
2023-02-18T22:27:27.105Z,19.58
2023-02-18T22:29:29.640Z,21.85
2023-02-18T22:31:32.657Z,19.20
2023-02-18T22:33:34.983Z,16.55
2023-02-18T22:35:36.686Z,18.40
2023-02-18T22:37:38.245Z,18.95
2023-02-18T22:39:39.919Z,19.27
2023-02-18T22:41:42.199Z,16.75
2023-02-18T22:43:44.397Z,20.75
2023-02-18T22:45:46.174Z,17.83
2023-02-18T22:47:47.798Z,14.93
2023-02-18T22:49:49.490Z,18.00
2023-02-18T22:51:53.206Z,19.40
2023-02-18T22:53:55.892Z,20.30
2023-02-18T22:56:02.142Z,17.60
2023-02-18T22:58:03.745Z,17.98
2023-02-18T23:00:10.686Z,18.70
2023-02-18T23:02:12.322Z,15.55
2023-02-18T23:04:15.753Z,17.40
2023-02-18T23:06:18.283Z,18.52
2023-02-18T23:08:20.110Z,18.08
2023-02-18T23:10:21.665Z,19.45
2023-02-18T23:12:23.364Z,19.42
2023-02-18T23:14:28.112Z,17.67
2023-02-18T23:16:29.720Z,20.67
2023-02-18T23:18:33.037Z,20.92
2023-02-18T23:20:54.381Z,20.63
2023-02-18T23:22:55.989Z,16.20
2023-02-18T23:24:58.065Z,19.80
2023-02-18T23:26:59.711Z,26.42
2023-02-18T23:29:01.332Z,19.45
2023-02-18T23:31:03.010Z,26.35
2023-02-18T23:33:04.697Z,26.92
2023-02-18T23:35:06.494Z,24.05
2023-02-18T23:37:08.191Z,19.77
2023-02-18T23:39:11.978Z,19.52
2023-02-18T23:41:13.679Z,19.83
2023-02-18T23:43:15.556Z,21.67
2023-02-18T23:45:17.133Z,22.52
2023-02-18T23:47:18.758Z,21.67
2023-02-18T23:49:25.183Z,19.77
2023-02-18T23:51:26.877Z,22.77
2023-02-18T23:53:29.828Z,18.75
2023-02-18T23:55:31.448Z,17.53
2023-02-18T23:57:33.166Z,18.90
2023-02-18T23:59:35.872Z,18.25
